Lähimpiä lentokenttien sääasemia

 

EFHK - Helsinki/Vantaa, Finland
Ilmasuunta ja etäisyys Sääasema Lakkasuosta: IKO 25km
Päivitetty: 27/05/2018 14:50
Selkeätä
Selkeätä
 Tuulen suunta LU
Tuuli: LU 24 km/h
Lämpötila: 20°C
Kastepiste: 1°C
Kosteus: 28%
Ilmanpaine: 1029 hPa
Yhteenveto: Selkeätä
Näkyvyys: enemmän kuin 10 km
2018/05/27 11:50 EFHK 271150Z 32013KT CAVOK 20/01 Q1029 NOSIG
EFHF - Helsinki/Malmi, Finland
Ilmasuunta ja etäisyys Sääasema Lakkasuosta: I 29km
Päivitetty: 01/01/1970 02:00
NOT Current
unable to load EFHF data RC=404 Not Found
unable to load EFHF data RC=404 Not Found
 
 
EETN - Tallinn, Estonia
Ilmasuunta ja etäisyys Sääasema Lakkasuosta: E 97km
Päivitetty: 27/05/2018 14:50
Selkeätä
Selkeätä
 Tuulen suunta KO
Tuuli: KO 15 km/h
Lämpötila: 19°C
Kastepiste: 0°C
Kosteus: 28%
Ilmanpaine: 1029 hPa
Yhteenveto: Selkeätä
Näkyvyys: enemmän kuin 10 km
2018/05/27 11:50 EETN 271150Z 05008KT 010V080 CAVOK 19/M00 Q1029 NOSIG
EFTU - Turku/Abo, Finland
Ilmasuunta ja etäisyys Sääasema Lakkasuosta: LLU 127km
Päivitetty: 01/01/1970 02:00
NOT Current
unable to load EFTU data RC=404 Not Found
unable to load EFTU data RC=404 Not Found
 
 
EFTP - Tampere/Pirkkala, Finland
Ilmasuunta ja etäisyys Sääasema Lakkasuosta: PLU 138km
Päivitetty: 27/05/2018 14:50
Selkeätä
Selkeätä
 Tuulen suunta PKO
Tuuli: PKO 13 km/h
Lämpötila: 18°C
Kastepiste: 1°C
Kosteus: 32%
Ilmanpaine: 1031 hPa
Yhteenveto: Selkeätä
Näkyvyys: enemmän kuin 10 km
2018/05/27 11:50 EFTP 271150Z AUTO 03007KT CAVOK 18/01 Q1031
EFPO - Pori (mil/Civ), Finland
Ilmasuunta ja etäisyys Sääasema Lakkasuosta: LU 199km
Päivitetty: 27/05/2018 14:50
Selkeätä
Selkeätä
 Tuulen suunta LLU
Tuuli: LLU 28 km/h
Lämpötila: 18°C
Kastepiste: 2°C
Kosteus: 34%
Ilmanpaine: 1030 hPa
Yhteenveto: Selkeätä
Näkyvyys: enemmän kuin 10 km
2018/05/27 11:50 EFPO 271150Z AUTO 30015KT CAVOK 18/02 Q1030
 
EFLP - Lappeenranta, Finland
Ilmasuunta ja etäisyys Sääasema Lakkasuosta: IKO 216km
Päivitetty: 27/05/2018 14:50
Selkeätä
Selkeätä
 Tuulen suunta P
Tuuli: P 15 km/h
Lämpötila: 18°C
Kastepiste: -1°C
Kosteus: 28%
Ilmanpaine: 1027 hPa
Yhteenveto: Selkeätä
Näkyvyys: enemmän kuin 10 km
2018/05/27 11:50 EFLP 271150Z AUTO 35008KT 300V040 CAVOK 18/M01 Q1027
EFMI - Mikkeli, Finland
Ilmasuunta ja etäisyys Sääasema Lakkasuosta: KO 220km
Päivitetty: 27/05/2018 14:50
Selkeätä
Selkeätä
 Tuulen suunta varies
Tuuli: varies 11 km/h
Lämpötila: 18°C
Kastepiste: 0°C
Kosteus: 30%
Ilmanpaine: 1029 hPa
Yhteenveto: Selkeätä
Näkyvyys: enemmän kuin 10 km
2018/05/27 11:50 EFMI 271150Z AUTO VRB06KT CAVOK 18/M00 Q1029
 
EFJY - Jyvaskyla (mil/C, Finland
Ilmasuunta ja etäisyys Sääasema Lakkasuosta: PKO 245km
Päivitetty: 27/05/2018 14:50
Selkeätä
Selkeätä
 Tuulen suunta PKO
Tuuli: PKO 15 km/h
Lämpötila: 17°C
Kastepiste: -2°C
Kosteus: 27%
Ilmanpaine: 1029 hPa
Yhteenveto: Selkeätä
Näkyvyys: enemmän kuin 10 km
2018/05/27 11:50 EFJY 271150Z AUTO 02008KT CAVOK 17/M02 Q1029
EFMA - Mariehamn/Aland, Finland
Ilmasuunta ja etäisyys Sääasema Lakkasuosta: L 257km
Päivitetty: 27/05/2018 14:50
Selkeätä
Selkeätä
 Tuulen suunta P
Tuuli: P 20 km/h
Lämpötila: 19°C
Kastepiste: 1°C
Kosteus: 30%
Ilmanpaine: 1031 hPa
Yhteenveto: Selkeätä
Näkyvyys: enemmän kuin 10 km
2018/05/27 11:50 EFMA 271150Z AUTO 35011KT 320V050 CAVOK 19/01 Q1031
 
EFVR - Varkaus, Finland
Ilmasuunta ja etäisyys Sääasema Lakkasuosta: KO 277km
Päivitetty: 15/04/2016 08:50
NOT Current
Selkeätä
Selkeätä
 Tuulen suunta PLU
Tuuli: PLU 15 km/h
Lämpötila: -1°C
Hyytävyys: -6°C
Kastepiste: -8°C
Kosteus: 59%
Ilmanpaine: 1005 hPa
Yhteenveto: Selkeätä
Näkyvyys: enemmän kuin 10 km
2016/04/15 05:50 EFVR 150550Z AUTO 33008KT CAVOK M01/M08 Q1005
EFSI - Seinajoki-Ilmajo, Finland
Ilmasuunta ja etäisyys Sääasema Lakkasuosta: PLU 285km
Päivitetty: 27/05/2018 14:50
Selkeätä
Selkeätä
 Tuulen suunta LU
Tuuli: LU 19 km/h
Lämpötila: 16°C
Kastepiste: 0°C
Kosteus: 34%
Ilmanpaine: 1031 hPa
Yhteenveto: Selkeätä
Näkyvyys: enemmän kuin 10 km
2018/05/27 11:50 EFSI 271150Z AUTO 32010KT 270V360 CAVOK 16/M00 Q1031
 
KSJC - San Jose, California, USA
Ilmasuunta ja etäisyys Sääasema Lakkasuosta: PLU 8758km
Päivitetty: 27/05/2018 14:53
Selkeätä
Selkeätä
 Tuulen suunta KA
Tuuli: KA 7 km/h
Lämpötila: 12°C
Kastepiste: 9°C
Kosteus: 82%
Ilmanpaine: 1015.9 hPa
Pilvet: Selkeätä
Näkyvyys: 16 km
2018/05/27 11:53 KSJC 271153Z AUTO 14004KT 10SM CLR 12/09 A3000 RMK AO2 SLP158 T01220094 10144 20117 56006